Aérodrome :
LOGIN :

S'inscrire | Disclaimer

   EN    FR    IT 

 










Légende :    VFR   VFR Marginal   IFR   IFR Intensif   IFR Très Intensif
Visi : 
Plafond : 
>= 8 km
>= 3000ft
5 à 8 km
1000 à 3000 ft
1500m à 5 km
500 à 1000 ft
800 à 1500m
200 à 500 ft
< 800m
< 200 ft
Symboles :   Orages  Brouillard  Fortes neiges  Fortes précipitations  Vent > 20 kt
SIGMETs :   Divers  Orages  Givrage  Turbulence  Onde Orograph.  Cendres Volcan.






- Altitude de l'aérodrome : 200 ft


EBBL - Klein Brogel AB

DERNIER METAR :
  • 172125Z AUTO 24016KT 9999 BKN023/// BKN055/// 08/04 Q1016 WHT

METARs EXPIRÉS :
  • 172055Z AUTO 24017KT 9999 BKN023/// BKN050/// 08/04 Q1016 WHT
  • 172039Z AUTO 24017KT 9999 BKN024/// BKN055/// 08/04 Q1015 WHT
  • 172025Z AUTO 24020KT 9999 BKN026/// BKN055/// 08/04 Q1015 BLU
  • 172020Z 24019KT 9999 FEW025TCU BKN035 08/04 Q1015 BLU FCST CANCEL
  • 171955Z 24017KT 9999 FEW025TCU BKN035 09/04 Q1015 BLU BLU
  • 171925Z 23017KT 9999 FEW025TCU BKN035 09/03 Q1015 BLU BLU
  • 171855Z 23019G33KT 9999 FEW025TCU BKN035 09/03 Q1014 BLU BLU TEMPO GRN

TAF TAF EBBL
Valide du 17 à 19h jusqu'au 18 à 07h UTC


171541Z 1719/1807 22018G30KT 9999 BKN025 SCT220
TEMPO 1719/1801 23025G35KT 4000 SHRA SCT015 BKN030
PROB30
TEMPO 1719/1723 23025G40KT 2000 -TSRAGS BKN012CB BKN020
BECMG 1801/1803 27018G30KT 9999 FEW025



MET'MAP, la Météo Aéronautique d'un coup d'oeil ! - Copyright ORBIFLY Décembre 2007 - Disclaimer

ORBIFLY MET'MAP TEAM :

Programmation & Développement : Alexandra Zaïnal
Sur une idée originale de : Baudouin d'Aumeries
Assistance à la programmation : Marc-Olivier Méhu
Soutien technique & logistique : Manuel Goepfert

Contact : metmap@orbifly.com




SOURCES & CREDITS :

   NOAA